Wetterdaten: Woche 27.10.08 - 02.11.08 (KW44)
Datum Zeit Temperatur Luftfeuchte Luftdruck Niederschlag Wind Richtung Sonnenschein Solar Taupunkt Windchill Windben
27.10.2008 00:00 6.1 C 99 % 1019.2 hPa 0.0 l/m 0.2 km/h (0 Bft) O-SO 0.00 h 0 W/m 5.9 C 6.1 C 0.6 km/h (0 Bft)
27.10.2008 01:00 6.0 C 100 % 1018.4 hPa 0.0 l/m 0.1 km/h (0 Bft) O-SO 0.00 h 0 W/m 6.0 C 6.0 C 0.5 km/h (0 Bft)
27.10.2008 02:00 6.5 C 100 % 1017.5 hPa 0.0 l/m 0.5 km/h (0 Bft) O-SO 0.00 h 0 W/m 6.5 C 6.5 C 1.4 km/h (1 Bft)
27.10.2008 03:00 6.4 C 100 % 1016.1 hPa 0.0 l/m 0.5 km/h (0 Bft) O-SO 0.00 h 0 W/m 6.4 C 6.4 C 1.4 km/h (1 Bft)
27.10.2008 04:00 6.4 C 100 % 1014.9 hPa 0.0 l/m 0.4 km/h (0 Bft) O 0.00 h 0 W/m 6.4 C 6.4 C 1.1 km/h (1 Bft)
27.10.2008 05:00 7.1 C 100 % 1014.2 hPa 0.0 l/m 0.2 km/h (0 Bft) O 0.00 h 0 W/m 7.1 C 7.1 C 0.8 km/h (0 Bft)
27.10.2008 06:00 7.5 C 100 % 1013.1 hPa 0.0 l/m 1.2 km/h (1 Bft) SO 0.00 h 0 W/m 7.5 C 7.5 C 2.6 km/h (1 Bft)
27.10.2008 07:00 7.9 C 98 % 1012.4 hPa 0.0 l/m 0.9 km/h (0 Bft) SO 0.07 h 29 W/m 7.6 C 7.9 C 2.2 km/h (1 Bft)
27.10.2008 08:00 8.4 C 96 % 1012.1 hPa 0.0 l/m 1.1 km/h (0 Bft) O-SO 0.00 h 78 W/m 7.9 C 8.4 C 2.5 km/h (1 Bft)
27.10.2008 09:00 9.3 C 93 % 1011.9 hPa 0.0 l/m 1.2 km/h (1 Bft) SO 0.00 h 106 W/m 8.2 C 9.3 C 3.2 km/h (1 Bft)
27.10.2008 10:00 10.4 C 88 % 1011.8 hPa 0.0 l/m 1.6 km/h (1 Bft) S 0.00 h 133 W/m 8.5 C 10.4 C 4.3 km/h (1 Bft)
27.10.2008 11:00 11.0 C 87 % 1011.5 hPa 0.0 l/m 1.1 km/h (0 Bft) NW 0.00 h 153 W/m 8.9 C 11.0 C 2.9 km/h (1 Bft)
27.10.2008 12:00 11.6 C 78 % 1010.7 hPa 0.0 l/m 5.4 km/h (1 Bft) W 0.00 h 111 W/m 7.9 C 11.6 C 9.0 km/h (2 Bft)
27.10.2008 13:00 11.4 C 82 % 1010.7 hPa 0.2 l/m 4.5 km/h (1 Bft) W 0.00 h 117 W/m 8.4 C 11.4 C 8.1 km/h (2 Bft)
27.10.2008 14:00 11.3 C 84 % 1009.5 hPa 0.0 l/m 1.6 km/h (1 Bft) S 0.00 h 70 W/m 8.6 C 11.3 C 3.9 km/h (1 Bft)
27.10.2008 15:00 11.4 C 83 % 1009.2 hPa 0.0 l/m 2.0 km/h (1 Bft) S-SO 0.00 h 65 W/m 8.6 C 11.4 C 4.8 km/h (1 Bft)
27.10.2008 16:00 11.3 C 83 % 1008.7 hPa 0.0 l/m 2.2 km/h (1 Bft) W-SW 0.00 h 31 W/m 8.6 C 11.3 C 4.7 km/h (1 Bft)
27.10.2008 17:00 11.1 C 83 % 1008.5 hPa 0.0 l/m 5.1 km/h (1 Bft) W 0.00 h 0 W/m 8.4 C 11.1 C 8.7 km/h (2 Bft)
27.10.2008 18:00 10.7 C 88 % 1009.1 hPa 0.2 l/m 3.8 km/h (1 Bft) W 0.00 h 0 W/m 8.7 C 10.7 C 7.0 km/h (2 Bft)
27.10.2008 19:00 10.2 C 94 % 1009.3 hPa 0.8 l/m 2.4 km/h (1 Bft) S 0.00 h 0 W/m 9.3 C 10.2 C 5.2 km/h (1 Bft)
27.10.2008 20:00 9.9 C 96 % 1009.4 hPa 1.0 l/m 1.9 km/h (1 Bft) S-SO 0.00 h 0 W/m 9.3 C 9.8 C 4.3 km/h (1 Bft)
27.10.2008 21:00 9.7 C 98 % 1008.9 hPa 0.4 l/m 1.8 km/h (1 Bft) S-SO 0.00 h 0 W/m 9.5 C 9.7 C 4.0 km/h (1 Bft)
27.10.2008 22:00 9.7 C 99 % 1008.6 hPa 0.0 l/m 0.4 km/h (0 Bft) SO 0.00 h 0 W/m 9.5 C 9.7 C 1.5 km/h (1 Bft)
27.10.2008 23:00 9.6 C 100 % 1008.2 hPa 1.0 l/m 0.9 km/h (0 Bft) SO 0.00 h 0 W/m 9.6 C 9.6 C 1.8 km/h (1 Bft)
28.10.2008 00:00 9.6 C 100 % 1007.7 hPa 0.8 l/m 0.7 km/h (0 Bft) SO 0.00 h 0 W/m 9.6 C 9.6 C 1.9 km/h (1 Bft)
28.10.2008 01:00 9.7 C 100 % 1007.7 hPa 0.8 l/m 0.9 km/h (0 Bft) SO 0.00 h 0 W/m 9.7 C 9.7 C 2.2 km/h (1 Bft)
28.10.2008 02:00 9.7 C 100 % 1007.6 hPa 1.0 l/m 2.9 km/h (1 Bft) S-SO 0.00 h 0 W/m 9.7 C 9.6 C 5.4 km/h (1 Bft)
28.10.2008 03:00 9.4 C 100 % 1007.6 hPa 0.6 l/m 6.1 km/h (2 Bft) W 0.00 h 0 W/m 9.4 C 8.5 C 10.2 km/h (2 Bft)
28.10.2008 04:00 7.8 C 100 % 1008.4 hPa 0.2 l/m 4.7 km/h (1 Bft) W-NW 0.00 h 0 W/m 7.8 C 7.2 C 9.0 km/h (2 Bft)
28.10.2008 05:00 7.4 C 100 % 1009.0 hPa 0.4 l/m 1.2 km/h (1 Bft) NW 0.00 h 0 W/m 7.4 C 7.4 C 2.5 km/h (1 Bft)
28.10.2008 06:00 7.2 C 100 % 1009.3 hPa 0.0 l/m 1.5 km/h (1 Bft) W-NW 0.00 h 0 W/m 7.2 C 7.2 C 3.4 km/h (1 Bft)
28.10.2008 07:00 7.0 C 100 % 1009.8 hPa 0.2 l/m 2.9 km/h (1 Bft) W-SW 0.00 h 10 W/m 7.0 C 6.8 C 6.0 km/h (2 Bft)
28.10.2008 08:00 7.3 C 100 % 1010.6 hPa 0.0 l/m 1.1 km/h (1 Bft) W-NW 0.00 h 36 W/m 7.2 C 7.2 C 3.0 km/h (1 Bft)
28.10.2008 09:00 7.8 C 95 % 1011.0 hPa 0.0 l/m 1.3 km/h (1 Bft) S-SO 0.00 h 47 W/m 7.0 C 7.7 C 3.3 km/h (1 Bft)
28.10.2008 10:00 7.8 C 94 % 1010.7 hPa 0.0 l/m 0.5 km/h (0 Bft) W-SW 0.00 h 61 W/m 6.9 C 7.8 C 1.6 km/h (1 Bft)
28.10.2008 11:00 7.7 C 97 % 1010.6 hPa 0.4 l/m 0.5 km/h (0 Bft) W-NW 0.00 h 78 W/m 7.3 C 7.7 C 1.8 km/h (1 Bft)
28.10.2008 12:00 8.0 C 96 % 1010.0 hPa 0.2 l/m 0.2 km/h (0 Bft) N 0.00 h 102 W/m 7.5 C 8.0 C 1.0 km/h (0 Bft)
28.10.2008 13:00 8.2 C 95 % 1009.5 hPa 0.2 l/m 0.1 km/h (0 Bft) N-NO 0.00 h 99 W/m 7.5 C 8.2 C 0.7 km/h (0 Bft)
28.10.2008 14:00 8.1 C 96 % 1009.5 hPa 0.6 l/m 0.1 km/h (0 Bft) N-NO 0.00 h 68 W/m 7.4 C 8.1 C 0.8 km/h (0 Bft)
28.10.2008 15:00 7.8 C 97 % 1009.6 hPa 0.4 l/m 0.9 km/h (0 Bft) S 0.00 h 43 W/m 7.4 C 7.8 C 2.6 km/h (1 Bft)
28.10.2008 16:00 7.5 C 97 % 1009.7 hPa 0.2 l/m 0.5 km/h (0 Bft) S-SO 0.00 h 16 W/m 7.0 C 7.5 C 1.8 km/h (1 Bft)
28.10.2008 17:00 7.2 C 97 % 1009.8 hPa 0.2 l/m 0.5 km/h (0 Bft) S-SO 0.00 h 0 W/m 6.7 C 7.2 C 1.8 km/h (1 Bft)
28.10.2008 18:00 7.1 C 97 % 1009.9 hPa 0.0 l/m 0.1 km/h (0 Bft) S-SO 0.00 h 0 W/m 6.6 C 7.1 C 0.5 km/h (0 Bft)
28.10.2008 19:00 6.9 C 97 % 1009.8 hPa 0.0 l/m 0.0 km/h (0 Bft) N 0.00 h 0 W/m 6.4 C 6.9 C 0.2 km/h (0 Bft)
28.10.2008 20:00 6.8 C 97 % 1009.3 hPa 0.0 l/m 0.0 km/h (0 Bft) S-SO 0.00 h 0 W/m 6.4 C 6.8 C 0.2 km/h (0 Bft)
28.10.2008 21:00 6.6 C 97 % 1009.1 hPa 0.6 l/m 0.3 km/h (0 Bft) S-SO 0.00 h 0 W/m 6.2 C 6.6 C 0.7 km/h (0 Bft)
28.10.2008 22:00 6.5 C 97 % 1008.8 hPa 0.6 l/m 0.0 km/h (0 Bft) N 0.00 h 0 W/m 6.1 C 6.5 C 0.1 km/h (0 Bft)
28.10.2008 23:00 6.7 C 97 % 1008.3 hPa 1.8 l/m 0.3 km/h (0 Bft) S-SO 0.00 h 0 W/m 6.2 C 6.7 C 1.0 km/h (0 Bft)
29.10.2008 00:00 6.2 C 97 % 1008.0 hPa 1.8 l/m 1.5 km/h (1 Bft) N-NO 0.00 h 0 W/m 5.7 C 6.1 C 3.9 km/h (1 Bft)
29.10.2008 01:00 5.6 C 97 % 1007.5 hPa 1.2 l/m 1.8 km/h (1 Bft) N 0.00 h 0 W/m 5.2 C 5.6 C 4.1 km/h (1 Bft)
29.10.2008 02:00 5.2 C 96 % 1007.0 hPa 1.6 l/m 1.3 km/h (1 Bft) N 0.00 h 0 W/m 4.7 C 5.2 C 3.3 km/h (1 Bft)
29.10.2008 03:00 4.8 C 96 % 1006.7 hPa 1.8 l/m 1.2 km/h (1 Bft) N-NO 0.00 h 0 W/m 4.2 C 4.8 C 3.1 km/h (1 Bft)
29.10.2008 04:00 4.4 C 96 % 1006.8 hPa 1.8 l/m 1.3 km/h (1 Bft) N-NO 0.00 h 0 W/m 3.8 C 4.3 C 3.4 km/h (1 Bft)
29.10.2008 05:00 4.3 C 96 % 1006.9 hPa 0.6 l/m 0.4 km/h (0 Bft) W-NW 0.00 h 0 W/m 3.7 C 4.3 C 1.2 km/h (1 Bft)
29.10.2008 06:00 4.2 C 96 % 1007.2 hPa 1.2 l/m 0.3 km/h (0 Bft) NW 0.00 h 0 W/m 3.6 C 4.2 C 0.8 km/h (0 Bft)
29.10.2008 07:00 4.2 C 96 % 1007.6 hPa 1.2 l/m 0.0 km/h (0 Bft) N-NW 0.00 h 8 W/m 3.6 C 4.2 C 0.2 km/h (0 Bft)
29.10.2008 08:00 4.1 C 97 % 1007.9 hPa 0.6 l/m 0.9 km/h (0 Bft) O 0.00 h 26 W/m 3.6 C 4.1 C 1.9 km/h (1 Bft)
29.10.2008 09:00 4.1 C 97 % 1007.8 hPa 0.8 l/m 0.4 km/h (0 Bft) O 0.00 h 32 W/m 3.7 C 4.1 C 1.2 km/h (1 Bft)
29.10.2008 10:00 3.9 C 96 % 1007.6 hPa 1.6 l/m 1.7 km/h (1 Bft) O-SO 0.00 h 61 W/m 3.4 C 3.8 C 3.6 km/h (1 Bft)
29.10.2008 11:00 3.9 C 96 % 1007.4 hPa 0.4 l/m 0.4 km/h (0 Bft) SO 0.00 h 58 W/m 3.3 C 3.9 C 1.4 km/h (1 Bft)
29.10.2008 12:00 3.9 C 95 % 1006.6 hPa 1.0 l/m 0.7 km/h (0 Bft) O-NO 0.00 h 56 W/m 3.2 C 3.9 C 2.0 km/h (1 Bft)
29.10.2008 13:00 3.3 C 94 % 1006.2 hPa 0.4 l/m 1.3 km/h (1 Bft) NO 0.00 h 77 W/m 2.5 C 3.3 C 2.8 km/h (1 Bft)
29.10.2008 14:00 3.3 C 95 % 1005.6 hPa 0.4 l/m 0.4 km/h (0 Bft) O-NO 0.00 h 59 W/m 2.5 C 3.3 C 1.5 km/h (1 Bft)
29.10.2008 15:00 3.5 C 95 % 1005.0 hPa 0.8 l/m 0.3 km/h (0 Bft) O-NO 0.00 h 34 W/m 2.7 C 3.5 C 1.3 km/h (1 Bft)
29.10.2008 16:00 3.8 C 95 % 1004.1 hPa 0.4 l/m 0.9 km/h (0 Bft) N 0.00 h 18 W/m 3.0 C 3.7 C 2.4 km/h (1 Bft)
29.10.2008 17:00 3.6 C 95 % 1003.7 hPa 0.8 l/m 0.4 km/h (0 Bft) NO 0.00 h 0 W/m 2.8 C 3.6 C 1.4 km/h (1 Bft)
29.10.2008 18:00 3.3 C 95 % 1003.3 hPa 3.4 l/m 0.5 km/h (0 Bft) O-NO 0.00 h 0 W/m 2.5 C 3.3 C 1.8 km/h (1 Bft)
29.10.2008 19:00 2.3 C 93 % 1002.9 hPa 2.2 l/m 1.1 km/h (1 Bft) O 0.00 h 0 W/m 1.3 C 2.3 C 2.3 km/h (1 Bft)
29.10.2008 20:00 1.3 C 94 % 1002.4 hPa 1.6 l/m 0.0 km/h (0 Bft) N 0.00 h 0 W/m 0.5 C 1.3 C 0.1 km/h (0 Bft)
29.10.2008 21:00 0.8 C 94 % 1002.1 hPa 0.6 l/m 0.0 km/h (0 Bft) N 0.00 h 0 W/m -0.0 C 0.8 C 0.3 km/h (0 Bft)
29.10.2008 22:00 0.5 C 95 % 1001.4 hPa 1.8 l/m 0.0 km/h (0 Bft) N 0.00 h 0 W/m -0.2 C 0.5 C 0.0 km/h (0 Bft)
29.10.2008 23:00 0.4 C 96 % 1000.4 hPa 0.8 l/m 0.0 km/h (0 Bft) N 0.00 h 0 W/m -0.1 C 0.4 C 0.0 km/h (0 Bft)
30.10.2008 00:00 0.4 C 97 % 999.6 hPa 1.6 l/m 0.0 km/h (0 Bft) N 0.00 h 0 W/m -0.0 C 0.4 C 0.0 km/h (0 Bft)
30.10.2008 01:00 0.4 C 97 % 998.9 hPa 1.0 l/m 0.0 km/h (0 Bft) N 0.00 h 0 W/m -0.0 C 0.4 C 0.0 km/h (0 Bft)
30.10.2008 02:00 0.4 C 97 % 998.9 hPa 0.8 l/m 0.0 km/h (0 Bft) N 0.00 h 0 W/m -0.0 C 0.4 C 0.0 km/h (0 Bft)
30.10.2008 03:00 0.4 C 97 % 998.4 hPa 0.8 l/m 0.0 km/h (0 Bft) N 0.00 h 0 W/m 0.0 C 0.4 C 0.0 km/h (0 Bft)
30.10.2008 04:00 0.4 C 98 % 998.1 hPa 2.0 l/m 0.0 km/h (0 Bft) N 0.00 h 0 W/m 0.1 C 0.4 C 0.1 km/h (0 Bft)
30.10.2008 05:00 0.5 C 98 % 998.0 hPa 2.2 l/m 0.0 km/h (0 Bft) N 0.00 h 0 W/m 0.2 C 0.5 C 0.0 km/h (0 Bft)
30.10.2008 06:00 0.5 C 98 % 998.0 hPa 1.8 l/m 0.2 km/h (0 Bft) O-SO 0.00 h 0 W/m 0.2 C 0.5 C 0.9 km/h (0 Bft)
30.10.2008 07:00 0.7 C 98 % 998.2 hPa 1.4 l/m 0.2 km/h (0 Bft) S-SO 0.00 h 0 W/m 0.4 C 0.7 C 0.8 km/h (0 Bft)
30.10.2008 08:00 0.9 C 99 % 998.3 hPa 0.8 l/m 0.8 km/h (0 Bft) S-SO 0.00 h 9 W/m 0.7 C 0.8 C 2.3 km/h (1 Bft)
30.10.2008 09:00 1.3 C 99 % 998.6 hPa 1.0 l/m 0.9 km/h (0 Bft) S-SW 0.00 h 80 W/m 1.2 C 1.3 C 2.9 km/h (1 Bft)
30.10.2008 10:00 1.9 C 99 % 998.8 hPa 0.8 l/m 0.4 km/h (0 Bft) SW 0.00 h 170 W/m 1.8 C 1.9 C 1.8 km/h (1 Bft)
30.10.2008 11:00 2.4 C 98 % 999.1 hPa 0.2 l/m 1.2 km/h (1 Bft) S-SO 0.00 h 146 W/m 2.1 C 2.4 C 3.3 km/h (1 Bft)
30.10.2008 12:00 2.7 C 97 % 999.3 hPa 0.0 l/m 1.9 km/h (1 Bft) S-SO 0.08 h 200 W/m 2.3 C 2.5 C 3.8 km/h (1 Bft)
30.10.2008 13:00 3.3 C 92 % 999.1 hPa 0.0 l/m 3.5 km/h (1 Bft) SO 0.58 h 303 W/m 2.1 C 2.9 C 6.3 km/h (2 Bft)
30.10.2008 14:00 3.4 C 88 % 999.0 hPa 0.0 l/m 2.2 km/h (1 Bft) O-SO 0.12 h 147 W/m 1.6 C 3.2 C 3.7 km/h (1 Bft)
30.10.2008 15:00 3.4 C 88 % 998.7 hPa 0.0 l/m 1.6 km/h (1 Bft) SO 0.00 h 61 W/m 1.6 C 3.3 C 2.8 km/h (1 Bft)
30.10.2008 16:00 3.1 C 90 % 999.3 hPa 0.0 l/m 1.3 km/h (1 Bft) O-SO 0.00 h 18 W/m 1.7 C 3.0 C 2.9 km/h (1 Bft)
30.10.2008 17:00 2.7 C 92 % 999.6 hPa 0.0 l/m 1.2 km/h (1 Bft) O-SO 0.00 h 5 W/m 1.5 C 2.7 C 2.3 km/h (1 Bft)
30.10.2008 18:00 2.5 C 93 % 999.9 hPa 0.0 l/m 0.3 km/h (0 Bft) O-SO 0.00 h 0 W/m 1.5 C 2.5 C 1.2 km/h (1 Bft)
30.10.2008 19:00 2.4 C 93 % 1000.5 hPa 0.0 l/m 0.4 km/h (0 Bft) W-SW 0.00 h 0 W/m 1.4 C 2.4 C 1.3 km/h (1 Bft)
30.10.2008 20:00 2.2 C 94 % 1000.9 hPa 0.0 l/m 0.9 km/h (0 Bft) W-SW 0.00 h 0 W/m 1.4 C 2.2 C 2.0 km/h (1 Bft)
30.10.2008 21:00 1.8 C 94 % 1001.1 hPa 0.0 l/m 2.8 km/h (1 Bft) SO 0.00 h 0 W/m 1.0 C 1.5 C 4.1 km/h (1 Bft)
30.10.2008 22:00 1.2 C 95 % 1001.5 hPa 0.0 l/m 2.0 km/h (1 Bft) O-SO 0.00 h 0 W/m 0.5 C 0.9 C 3.4 km/h (1 Bft)
30.10.2008 23:00 0.9 C 96 % 1002.2 hPa 0.0 l/m 1.8 km/h (1 Bft) O 0.00 h 0 W/m 0.4 C 0.9 C 3.2 km/h (1 Bft)
31.10.2008 00:00 0.6 C 97 % 1002.7 hPa 0.0 l/m 1.3 km/h (1 Bft) O 0.00 h 0 W/m 0.2 C 0.5 C 2.8 km/h (1 Bft)
31.10.2008 01:00 0.9 C 97 % 1003.4 hPa 0.0 l/m 0.1 km/h (0 Bft) O 0.00 h 0 W/m 0.4 C 0.9 C 0.4 km/h (0 Bft)
31.10.2008 02:00 1.0 C 97 % 1003.8 hPa 0.0 l/m 2.0 km/h (1 Bft) O 0.00 h 0 W/m 0.6 C 0.9 C 3.2 km/h (1 Bft)
31.10.2008 03:00 1.1 C 98 % 1004.1 hPa 0.0 l/m 2.8 km/h (1 Bft) O-SO 0.00 h 0 W/m 0.8 C 0.5 C 4.2 km/h (1 Bft)
31.10.2008 04:00 1.2 C 98 % 1004.8 hPa 0.0 l/m 0.6 km/h (0 Bft) O-SO 0.00 h 0 W/m 1.0 C 1.2 C 1.4 km/h (1 Bft)
31.10.2008 05:00 1.4 C 98 % 1005.2 hPa 0.0 l/m 1.0 km/h (0 Bft) O-SO 0.00 h 0 W/m 1.1 C 1.3 C 2.4 km/h (1 Bft)
31.10.2008 06:00 1.5 C 98 % 1005.5 hPa 0.0 l/m 3.2 km/h (1 Bft) O-SO 0.00 h 0 W/m 1.3 C 1.1 C 5.6 km/h (1 Bft)
31.10.2008 07:00 1.5 C 98 % 1006.1 hPa 0.0 l/m 1.7 km/h (1 Bft) O-SO 0.00 h 22 W/m 1.2 C 1.3 C 3.6 km/h (1 Bft)
31.10.2008 08:00 1.8 C 98 % 1006.1 hPa 0.0 l/m 2.0 km/h (1 Bft) O-SO 0.08 h 58 W/m 1.6 C 1.6 C 4.0 km/h (1 Bft)
31.10.2008 09:00 2.3 C 97 % 1006.8 hPa 0.0 l/m 1.1 km/h (0 Bft) O 0.00 h 70 W/m 1.9 C 2.1 C 2.4 km/h (1 Bft)
31.10.2008 10:00 2.8 C 95 % 1007.6 hPa 0.0 l/m 2.8 km/h (1 Bft) O-SO 0.00 h 88 W/m 2.0 C 2.4 C 5.0 km/h (1 Bft)
31.10.2008 11:00 3.1 C 92 % 1008.4 hPa 0.0 l/m 3.2 km/h (1 Bft) SO 0.00 h 83 W/m 2.0 C 2.6 C 5.5 km/h (1 Bft)
31.10.2008 12:00 3.4 C 89 % 1008.3 hPa 0.0 l/m 2.3 km/h (1 Bft) O 0.00 h 102 W/m 1.9 C 3.2 C 4.4 km/h (1 Bft)
31.10.2008 13:00 3.9 C 89 % 1008.2 hPa 0.0 l/m 1.2 km/h (1 Bft) O-SO 0.00 h 116 W/m 2.2 C 3.8 C 3.1 km/h (1 Bft)
31.10.2008 14:00 3.9 C 89 % 1008.0 hPa 0.0 l/m 1.0 km/h (0 Bft) O-SO 0.00 h 75 W/m 2.2 C 3.9 C 2.7 km/h (1 Bft)
31.10.2008 15:00 4.1 C 89 % 1008.3 hPa 0.0 l/m 0.6 km/h (0 Bft) O 0.00 h 42 W/m 2.5 C 4.1 C 2.0 km/h (1 Bft)
31.10.2008 16:00 4.0 C 89 % 1007.6 hPa 0.0 l/m 0.5 km/h (0 Bft) O-SO 0.00 h 21 W/m 2.4 C 4.0 C 1.6 km/h (1 Bft)
31.10.2008 17:00 3.6 C 90 % 1007.5 hPa 0.0 l/m 1.8 km/h (1 Bft) O-SO 0.00 h 5 W/m 2.1 C 3.4 C 3.6 km/h (1 Bft)
31.10.2008 18:00 3.1 C 91 % 1007.7 hPa 0.0 l/m 0.6 km/h (0 Bft) O-SO 0.00 h 0 W/m 1.7 C 3.0 C 1.8 km/h (1 Bft)
31.10.2008 19:00 2.9 C 92 % 1007.5 hPa 0.0 l/m 1.1 km/h (1 Bft) O-SO 0.00 h 0 W/m 1.7 C 2.8 C 2.2 km/h (1 Bft)
31.10.2008 20:00 2.4 C 93 % 1007.3 hPa 0.0 l/m 0.2 km/h (0 Bft) O 0.00 h 0 W/m 1.4 C 2.4 C 0.5 km/h (0 Bft)
31.10.2008 21:00 2.0 C 94 % 1007.1 hPa 0.0 l/m 0.5 km/h (0 Bft) O 0.00 h 0 W/m 1.1 C 1.9 C 1.6 km/h (1 Bft)
31.10.2008 22:00 2.2 C 95 % 1006.5 hPa 0.0 l/m 0.8 km/h (0 Bft) SO 0.00 h 0 W/m 1.6 C 2.2 C 1.9 km/h (1 Bft)
31.10.2008 23:00 2.5 C 96 % 1006.0 hPa 0.0 l/m 0.1 km/h (0 Bft) SO 0.00 h 0 W/m 1.9 C 2.5 C 0.7 km/h (0 Bft)
01.11.2008 00:00 2.5 C 96 % 1005.8 hPa 0.0 l/m 0.0 km/h (0 Bft) SO 0.00 h 0 W/m 2.0 C 2.5 C 0.2 km/h (0 Bft)
01.11.2008 01:00 2.5 C 97 % 1005.5 hPa 0.0 l/m 0.2 km/h (0 Bft) SO 0.00 h 0 W/m 2.1 C 2.5 C 0.7 km/h (0 Bft)
01.11.2008 02:00 2.4 C 97 % 1005.7 hPa 0.0 l/m 0.1 km/h (0 Bft) SO 0.00 h 0 W/m 1.9 C 2.4 C 0.4 km/h (0 Bft)
01.11.2008 03:00 2.5 C 97 % 1005.5 hPa 0.0 l/m 1.3 km/h (1 Bft) NW 0.00 h 0 W/m 2.0 C 2.3 C 2.6 km/h (1 Bft)
01.11.2008 04:00 2.5 C 97 % 1005.6 hPa 0.0 l/m 0.7 km/h (0 Bft) N-NO 0.00 h 0 W/m 2.0 C 2.4 C 1.4 km/h (1 Bft)
01.11.2008 05:00 2.4 C 97 % 1006.0 hPa 0.0 l/m 1.8 km/h (1 Bft) O-SO 0.00 h 0 W/m 2.0 C 2.3 C 3.7 km/h (1 Bft)
01.11.2008 06:00 2.3 C 97 % 1006.6 hPa 0.0 l/m 1.7 km/h (1 Bft) O-SO 0.00 h 0 W/m 1.9 C 2.1 C 3.3 km/h (1 Bft)
01.11.2008 07:00 2.4 C 98 % 1006.6 hPa 0.0 l/m 2.1 km/h (1 Bft) O-SO 0.12 h 22 W/m 2.1 C 2.0 C 3.8 km/h (1 Bft)
01.11.2008 08:00 2.6 C 98 % 1007.2 hPa 0.0 l/m 2.3 km/h (1 Bft) O-SO 0.00 h 51 W/m 2.3 C 2.2 C 4.0 km/h (1 Bft)
01.11.2008 09:00 3.1 C 98 % 1007.3 hPa 0.0 l/m 0.5 km/h (0 Bft) SO 0.00 h 61 W/m 2.7 C 3.1 C 1.6 km/h (1 Bft)
01.11.2008 10:00 3.5 C 97 % 1007.9 hPa 0.0 l/m 1.4 km/h (1 Bft) O-SO 0.00 h 77 W/m 3.0 C 3.4 C 3.1 km/h (1 Bft)
01.11.2008 11:00 3.9 C 94 % 1008.1 hPa 0.0 l/m 1.1 km/h (1 Bft) O-SO 0.00 h 90 W/m 3.0 C 3.9 C 2.7 km/h (1 Bft)
01.11.2008 12:00 4.0 C 92 % 1007.8 hPa 0.0 l/m 0.5 km/h (0 Bft) O-NO 0.00 h 77 W/m 2.8 C 4.0 C 1.8 km/h (1 Bft)
01.11.2008 13:00 4.1 C 92 % 1007.6 hPa 0.0 l/m 2.5 km/h (1 Bft) O-SO 0.00 h 107 W/m 3.0 C 3.9 C 5.1 km/h (1 Bft)
01.11.2008 14:00 4.4 C 92 % 1007.9 hPa 0.0 l/m 0.8 km/h (0 Bft) O-SO 0.00 h 76 W/m 3.2 C 4.4 C 1.8 km/h (1 Bft)
01.11.2008 15:00 4.9 C 91 % 1008.2 hPa 0.0 l/m 1.6 km/h (1 Bft) O-SO 0.00 h 56 W/m 3.6 C 4.8 C 2.8 km/h (1 Bft)
01.11.2008 16:00 4.8 C 91 % 1008.2 hPa 0.0 l/m 2.6 km/h (1 Bft) O-SO 0.00 h 17 W/m 3.4 C 4.6 C 4.6 km/h (1 Bft)
01.11.2008 17:00 4.6 C 92 % 1009.1 hPa 0.0 l/m 1.1 km/h (0 Bft) O-SO 0.00 h 0 W/m 3.4 C 4.6 C 2.5 km/h (1 Bft)
01.11.2008 18:00 4.3 C 92 % 1010.2 hPa 0.0 l/m 1.7 km/h (1 Bft) SO 0.00 h 0 W/m 3.2 C 4.2 C 3.3 km/h (1 Bft)
01.11.2008 19:00 4.2 C 93 % 1011.0 hPa 0.0 l/m 1.9 km/h (1 Bft) SO 0.00 h 0 W/m 3.1 C 4.0 C 3.8 km/h (1 Bft)
01.11.2008 20:00 4.2 C 94 % 1011.8 hPa 0.0 l/m 1.9 km/h (1 Bft) O-SO 0.00 h 0 W/m 3.3 C 4.1 C 3.3 km/h (1 Bft)
01.11.2008 21:00 4.2 C 94 % 1012.5 hPa 0.0 l/m 3.0 km/h (1 Bft) SO 0.00 h 0 W/m 3.3 C 3.9 C 5.2 km/h (1 Bft)
01.11.2008 22:00 3.9 C 95 % 1013.3 hPa 0.0 l/m 1.9 km/h (1 Bft) O-SO 0.00 h 0 W/m 3.1 C 3.8 C 3.3 km/h (1 Bft)
01.11.2008 23:00 3.9 C 95 % 1014.1 hPa 0.0 l/m 0.4 km/h (0 Bft) O-SO 0.00 h 0 W/m 3.3 C 3.9 C 1.0 km/h (0 Bft)
02.11.2008 00:00 4.0 C 96 % 1015.0 hPa 0.0 l/m 0.5 km/h (0 Bft) O-SO 0.00 h 0 W/m 3.4 C 4.0 C 1.3 km/h (1 Bft)
02.11.2008 01:00 3.9 C 96 % 1015.7 hPa 0.0 l/m 0.4 km/h (0 Bft) O-SO 0.00 h 0 W/m 3.3 C 3.9 C 1.7 km/h (1 Bft)
02.11.2008 02:00 3.9 C 97 % 1016.4 hPa 0.0 l/m 1.1 km/h (0 Bft) O-SO 0.00 h 0 W/m 3.4 C 3.8 C 2.8 km/h (1 Bft)
02.11.2008 03:00 3.8 C 97 % 1016.7 hPa 0.0 l/m 0.4 km/h (0 Bft) S-SO 0.00 h 0 W/m 3.4 C 3.8 C 1.3 km/h (1 Bft)
02.11.2008 04:00 3.6 C 97 % 1016.9 hPa 0.0 l/m 1.3 km/h (1 Bft) O-SO 0.00 h 0 W/m 3.2 C 3.6 C 3.4 km/h (1 Bft)
02.11.2008 05:00 3.3 C 97 % 1017.2 hPa 0.0 l/m 0.3 km/h (0 Bft) NO 0.00 h 0 W/m 2.9 C 3.3 C 1.1 km/h (1 Bft)
02.11.2008 06:00 3.2 C 97 % 1017.0 hPa 0.0 l/m 1.1 km/h (0 Bft) O-SO 0.00 h 0 W/m 2.9 C 3.2 C 2.7 km/h (1 Bft)
02.11.2008 07:00 3.3 C 98 % 1017.4 hPa 0.0 l/m 0.4 km/h (0 Bft) O-SO 0.00 h 9 W/m 3.0 C 3.3 C 1.8 km/h (1 Bft)
02.11.2008 08:00 3.5 C 98 % 1017.4 hPa 0.0 l/m 0.9 km/h (0 Bft) NO 0.00 h 47 W/m 3.2 C 3.5 C 2.9 km/h (1 Bft)
02.11.2008 09:00 4.7 C 95 % 1016.7 hPa 0.0 l/m 1.9 km/h (1 Bft) O 0.52 h 208 W/m 4.0 C 4.6 C 4.2 km/h (1 Bft)
02.11.2008 10:00 6.1 C 90 % 1016.1 hPa 0.0 l/m 4.3 km/h (1 Bft) O-SO 0.15 h 185 W/m 4.6 C 5.5 C 7.8 km/h (2 Bft)
02.11.2008 11:00 6.5 C 89 % 1015.8 hPa 0.0 l/m 2.0 km/h (1 Bft) SO 0.08 h 200 W/m 4.8 C 6.4 C 4.5 km/h (1 Bft)
02.11.2008 12:00 7.5 C 87 % 1014.9 hPa 0.0 l/m 1.9 km/h (1 Bft) O-SO 0.43 h 275 W/m 5.4 C 7.4 C 4.3 km/h (1 Bft)
02.11.2008 13:00 8.1 C 87 % 1014.0 hPa 0.0 l/m 0.5 km/h (0 Bft) O 0.12 h 179 W/m 6.0 C 8.1 C 1.9 km/h (1 Bft)
02.11.2008 14:00 8.5 C 87 % 1013.2 hPa 0.0 l/m 1.6 km/h (1 Bft) S-SO 0.07 h 147 W/m 6.5 C 8.5 C 4.1 km/h (1 Bft)
02.11.2008 15:00 8.5 C 89 % 1012.4 hPa 0.0 l/m 1.8 km/h (1 Bft) NW 0.00 h 82 W/m 6.7 C 8.4 C 4.2 km/h (1 Bft)
02.11.2008 16:00 8.2 C 91 % 1011.9 hPa 0.0 l/m 0.5 km/h (0 Bft) NW 0.00 h 23 W/m 6.9 C 8.2 C 1.5 km/h (1 Bft)
02.11.2008 17:00 7.8 C 93 % 1011.5 hPa 0.0 l/m 0.8 km/h (0 Bft) S 0.00 h 0 W/m 6.8 C 7.8 C 2.7 km/h (1 Bft)
02.11.2008 18:00 7.4 C 95 % 1011.6 hPa 0.0 l/m 0.7 km/h (0 Bft) W 0.00 h 0 W/m 6.5 C 7.4 C 2.3 km/h (1 Bft)
02.11.2008 19:00 7.1 C 95 % 1011.3 hPa 0.0 l/m 0.5 km/h (0 Bft) NO 0.00 h 0 W/m 6.3 C 7.1 C 1.4 km/h (1 Bft)
02.11.2008 20:00 6.8 C 96 % 1011.1 hPa 0.0 l/m 1.3 km/h (1 Bft) O-SO 0.00 h 0 W/m 6.2 C 6.7 C 3.3 km/h (1 Bft)
02.11.2008 21:00 6.4 C 96 % 1010.7 hPa 0.0 l/m 1.1 km/h (1 Bft) O 0.00 h 0 W/m 5.9 C 6.4 C 2.8 km/h (1 Bft)
02.11.2008 22:00 6.3 C 97 % 1010.3 hPa 0.0 l/m 1.3 km/h (1 Bft) N 0.00 h 0 W/m 5.9 C 6.3 C 3.0 km/h (1 Bft)
02.11.2008 23:00 6.2 C 97 % 1010.3 hPa 0.0 l/m 0.7 km/h (0 Bft) N 0.00 h 0 W/m 5.7 C 6.2 C 1.6 km/h (1 Bft)
Min-Datum _ 29.10.08 27.10.08 30.10.08 - 27.10.08 - - - 29.10.08 30.10.08 27.10.08
_ Min-Zeit 23:00 12:38 05:00 - 00:00 - - - 22:04 22:36 00:00
Minimum _ 0.3 C 72 % 997.9 hPa - 0.0 km/h (0 Bft) - - - -0.2 C -1.2 C 0.0 km/h (0 Bft)
Max-Datum _ 27.10.08 27.10.08 27.10.08 29.10.08 28.10.08 - 27.10.08 30.10.08 28.10.08 27.10.08 27.10.08
_ Max-Zeit 12:39 00:56 00:00 18:01 03:39 - 07:29 13:06 03:25 12:39 12:55
Maximum _ 11.9 C 100 % 1019.5 hPa 3.4 l/m 20.9 km/h
W (4 Bft)
- 0.02 h 594 W/m 9.8 C 11.9 C 27.8 km/h
W (4 Bft)
Durchschnitt _ 4.8 C 95 % 1007.8 hPa #56.0 l/m 1.2 km/h (1 Bft) O-SO #2:25 h 80 W/m 4.1 C 4.8 C 2.6 km/h (1 Bft)
© Kaiko 2008